Time;durP1;ratioP1;P1;durP2;ratioP2;P2;SDS_P1;SDS_P2;PMS_P1;PMS_P2;Temp;Humidity;BMP_temperature;BMP_pressure;BME280_temperature;BME280_humidity;BME280_pressure;Samples;Min_cycle;Max_cycle;Signal;HPM_P1;HPM_P2
2019/05/27 00:02:55;;;;;;;1.79;1.69;;;;;;;20.32;48.45;100118.06;;;;-57
2019/05/27 00:05:55;;;;;;;1.67;1.57;;;;;;;20.30;48.46;100117.08;;;;-57
2019/05/27 00:08:55;;;;;;;1.65;1.55;;;;;;;20.30;48.41;100118.02;;;;-61
2019/05/27 00:11:55;;;;;;;2.09;1.60;;;;;;;20.30;48.45;100121.00;;;;-52
2019/05/27 00:14:55;;;;;;;2.02;1.60;;;;;;;20.30;48.45;100119.83;;;;-57
2019/05/27 00:17:55;;;;;;;1.73;1.61;;;;;;;20.29;48.44;100119.66;;;;-61
2019/05/27 00:20:55;;;;;;;1.70;1.60;;;;;;;20.28;48.45;100122.75;;;;-54
2019/05/27 00:23:55;;;;;;;1.65;1.55;;;;;;;20.28;48.43;100123.31;;;;-54
2019/05/27 00:26:55;;;;;;;1.64;1.53;;;;;;;20.28;48.44;100126.47;;;;-54
2019/05/27 00:29:55;;;;;;;1.61;1.51;;;;;;;20.27;48.41;100124.42;;;;-54
2019/05/27 00:32:55;;;;;;;1.59;1.49;;;;;;;20.26;48.43;100127.27;;;;-57
2019/05/27 00:35:55;;;;;;;1.62;1.52;;;;;;;20.26;48.45;100123.48;;;;-61
2019/05/27 00:38:55;;;;;;;1.89;1.55;;;;;;;20.26;48.45;100126.43;;;;-57
2019/05/27 00:41:55;;;;;;;1.70;1.60;;;;;;;20.26;48.44;100126.50;;;;-62
2019/05/27 00:44:55;;;;;;;1.71;1.52;;;;;;;20.25;48.41;100125.48;;;;-57
2019/05/27 00:47:55;;;;;;;2.71;1.59;;;;;;;20.25;48.44;100121.47;;;;-57
2019/05/27 00:50:55;;;;;;;1.60;1.50;;;;;;;20.25;48.45;100120.86;;;;-54
2019/05/27 00:53:55;;;;;;;1.71;1.51;;;;;;;20.25;48.45;100117.64;;;;-55
2019/05/27 00:56:55;;;;;;;1.71;1.61;;;;;;;20.24;48.43;100116.40;;;;-54
2019/05/27 00:59:55;;;;;;;2.43;1.51;;;;;;;20.23;48.46;100116.36;;;;-57
2019/05/27 01:02:55;;;;;;;1.63;1.53;;;;;;;20.23;48.50;100114.58;;;;-57
2019/05/27 01:05:55;;;;;;;1.67;1.57;;;;;;;20.23;48.46;100116.42;;;;-52
2019/05/27 01:08:55;;;;;;;1.61;1.51;;;;;;;20.23;48.45;100117.00;;;;-53
2019/05/27 01:11:55;;;;;;;1.70;1.60;;;;;;;20.22;48.45;100114.72;;;;-52
2019/05/27 01:14:56;;;;;;;1.78;1.65;;;;;;;20.21;48.44;100110.09;;;;-55
2019/05/27 01:17:55;;;;;;;1.84;1.57;;;;;;;20.21;48.45;100114.95;;;;-61
2019/05/27 01:20:55;;;;;;;2.49;1.68;;;;;;;20.21;48.45;100112.83;;;;-54
2019/05/27 01:23:55;;;;;;;1.81;1.55;;;;;;;20.20;48.45;100110.89;;;;-54
2019/05/27 01:26:55;;;;;;;1.70;1.60;;;;;;;20.21;48.43;100111.66;;;;-61
2019/05/27 01:29:55;;;;;;;1.93;1.43;;;;;;;20.20;48.41;100114.64;;;;-55
2019/05/27 01:32:55;;;;;;;1.57;1.47;;;;;;;20.20;48.43;100111.29;;;;-54
2019/05/27 01:35:55;;;;;;;2.35;1.61;;;;;;;20.20;48.41;100110.95;;;;-61
2019/05/27 01:38:55;;;;;;;1.60;1.50;;;;;;;20.20;48.45;100109.11;;;;-54
2019/05/27 01:41:55;;;;;;;1.67;1.57;;;;;;;20.19;48.40;100103.70;;;;-57
2019/05/27 01:44:55;;;;;;;1.70;1.60;;;;;;;20.18;48.41;100096.73;;;;-54
2019/05/27 01:47:55;;;;;;;1.58;1.48;;;;;;;20.19;48.41;100093.81;;;;-61
2019/05/27 01:50:55;;;;;;;1.89;1.62;;;;;;;20.18;48.42;100097.06;;;;-57
2019/05/27 01:53:55;;;;;;;1.60;1.50;;;;;;;20.18;48.41;100099.31;;;;-52
2019/05/27 01:56:55;;;;;;;1.62;1.52;;;;;;;20.18;48.38;100098.64;;;;-61
2019/05/27 01:59:55;;;;;;;1.64;1.54;;;;;;;20.17;48.43;100097.50;;;;-61
2019/05/27 02:02:55;;;;;;;1.60;1.50;;;;;;;20.16;48.44;100099.17;;;;-53
2019/05/27 02:05:55;;;;;;;1.51;1.41;;;;;;;20.17;48.45;100098.61;;;;-61
2019/05/27 02:08:55;;;;;;;1.69;1.59;;;;;;;20.17;48.40;100099.61;;;;-52
2019/05/27 02:11:55;;;;;;;1.65;1.55;;;;;;;20.16;48.35;100100.25;;;;-52
2019/05/27 02:14:55;;;;;;;1.68;1.58;;;;;;;20.16;48.42;100095.79;;;;-52
2019/05/27 02:17:55;;;;;;;1.70;1.60;;;;;;;20.16;48.41;100095.05;;;;-63
2019/05/27 02:20:55;;;;;;;1.57;1.47;;;;;;;20.16;48.40;100090.36;;;;-52
2019/05/27 02:23:55;;;;;;;1.60;1.50;;;;;;;20.15;48.47;100088.24;;;;-54
2019/05/27 02:26:55;;;;;;;2.23;1.58;;;;;;;20.15;48.36;100084.22;;;;-62
2019/05/27 02:29:55;;;;;;;1.67;1.57;;;;;;;20.15;48.37;100078.02;;;;-54
2019/05/27 02:32:55;;;;;;;2.07;1.64;;;;;;;20.15;48.38;100084.45;;;;-61
2019/05/27 02:35:55;;;;;;;1.61;1.51;;;;;;;20.14;48.42;100082.41;;;;-54
2019/05/27 02:38:55;;;;;;;1.60;1.50;;;;;;;20.14;48.42;100081.40;;;;-61
2019/05/27 02:41:55;;;;;;;1.67;1.57;;;;;;;20.14;48.41;100081.23;;;;-61
2019/05/27 02:44:55;;;;;;;1.57;1.47;;;;;;;20.13;48.45;100080.96;;;;-57
2019/05/27 02:47:55;;;;;;;1.70;1.60;;;;;;;20.13;48.44;100084.31;;;;-62
2019/05/27 02:50:55;;;;;;;1.59;1.49;;;;;;;20.13;48.46;100085.39;;;;-54
2019/05/27 02:53:55;;;;;;;1.54;1.44;;;;;;;20.12;48.43;100085.12;;;;-53
2019/05/27 02:56:55;;;;;;;1.67;1.57;;;;;;;20.12;48.47;100087.03;;;;-54
2019/05/27 02:59:55;;;;;;;1.70;1.60;;;;;;;20.11;48.39;100081.39;;;;-54
2019/05/27 03:02:55;;;;;;;1.60;1.50;;;;;;;20.11;48.47;100085.25;;;;-52
2019/05/27 03:05:55;;;;;;;1.57;1.47;;;;;;;20.11;48.49;100084.75;;;;-54
2019/05/27 03:08:55;;;;;;;1.66;1.49;;;;;;;20.12;48.45;100083.17;;;;-54
2019/05/27 03:11:55;;;;;;;1.71;1.44;;;;;;;20.11;48.46;100085.31;;;;-57
2019/05/27 03:14:55;;;;;;;1.83;1.50;;;;;;;20.11;48.45;100085.75;;;;-61
2019/05/27 03:17:55;;;;;;;1.60;1.50;;;;;;;20.10;48.45;100080.86;;;;-57
2019/05/27 03:20:55;;;;;;;1.60;1.50;;;;;;;20.11;48.46;100079.61;;;;-54
2019/05/27 03:23:55;;;;;;;1.53;1.43;;;;;;;20.09;48.42;100073.78;;;;-55
2019/05/27 03:26:55;;;;;;;1.60;1.50;;;;;;;20.10;48.50;100071.63;;;;-57
2019/05/27 03:29:55;;;;;;;1.70;1.60;;;;;;;20.10;48.45;100066.61;;;;-61
2019/05/27 03:32:55;;;;;;;1.67;1.57;;;;;;;20.09;48.46;100065.90;;;;-57
2019/05/27 03:35:55;;;;;;;1.71;1.61;;;;;;;20.09;48.46;100060.70;;;;-52
2019/05/27 03:38:55;;;;;;;1.61;1.51;;;;;;;20.09;48.47;100059.19;;;;-57
2019/05/27 03:41:55;;;;;;;1.60;1.50;;;;;;;20.08;48.47;100061.00;;;;-54
2019/05/27 03:44:55;;;;;;;1.59;1.49;;;;;;;20.08;48.46;100055.03;;;;-61
2019/05/27 03:47:55;;;;;;;1.59;1.49;;;;;;;20.09;48.43;100054.91;;;;-61
2019/05/27 03:50:55;;;;;;;1.52;1.42;;;;;;;20.08;48.47;100057.72;;;;-52
2019/05/27 03:53:55;;;;;;;1.60;1.50;;;;;;;20.08;48.48;100058.48;;;;-54
2019/05/27 03:56:55;;;;;;;1.59;1.49;;;;;;;20.09;48.49;100059.77;;;;-61
2019/05/27 03:59:55;;;;;;;1.70;1.60;;;;;;;20.09;48.42;100053.73;;;;-52
2019/05/27 04:02:55;;;;;;;1.61;1.51;;;;;;;20.08;48.46;100052.12;;;;-57
2019/05/27 04:05:55;;;;;;;1.60;1.50;;;;;;;20.09;48.46;100055.17;;;;-57
2019/05/27 04:08:55;;;;;;;1.61;1.51;;;;;;;20.10;48.46;100055.38;;;;-57
2019/05/27 04:11:55;;;;;;;1.59;1.49;;;;;;;20.09;48.46;100057.52;;;;-57
2019/05/27 04:14:55;;;;;;;1.56;1.46;;;;;;;20.10;48.39;100057.72;;;;-57
2019/05/27 04:17:56;;;;;;;1.60;1.50;;;;;;;20.10;48.42;100056.21;;;;-57
2019/05/27 04:20:55;;;;;;;1.66;1.43;;;;;;;20.11;48.43;100061.11;;;;-57
2019/05/27 04:23:55;;;;;;;1.50;1.40;;;;;;;20.12;48.40;100060.70;;;;-57
2019/05/27 04:26:55;;;;;;;1.59;1.49;;;;;;;20.11;48.43;100061.00;;;;-57
2019/05/27 04:29:55;;;;;;;1.62;1.52;;;;;;;20.13;48.36;100061.08;;;;-57
2019/05/27 04:32:55;;;;;;;1.54;1.44;;;;;;;20.13;48.38;100062.92;;;;-57
2019/05/27 04:35:55;;;;;;;1.50;1.40;;;;;;;20.14;48.33;100063.63;;;;-57
2019/05/27 04:38:55;;;;;;;1.51;1.41;;;;;;;20.13;48.39;100066.95;;;;-57
2019/05/27 04:41:55;;;;;;;1.60;1.50;;;;;;;20.14;48.35;100068.99;;;;-57
2019/05/27 04:44:55;;;;;;;1.50;1.40;;;;;;;20.15;48.36;100074.90;;;;-57
2019/05/27 04:47:55;;;;;;;1.50;1.40;;;;;;;20.15;48.33;100068.80;;;;-57
2019/05/27 04:50:55;;;;;;;1.59;1.49;;;;;;;20.15;48.34;100068.19;;;;-57
2019/05/27 04:53:55;;;;;;;1.50;1.40;;;;;;;20.15;48.29;100065.61;;;;-62
2019/05/27 04:56:55;;;;;;;1.41;1.31;;;;;;;20.16;48.32;100068.13;;;;-54
2019/05/27 04:59:55;;;;;;;1.53;1.39;;;;;;;20.15;48.32;100065.61;;;;-57
2019/05/27 05:02:56;;;;;;;1.42;1.33;;;;;;;20.16;48.32;100065.27;;;;-57
2019/05/27 05:05:55;;;;;;;1.42;1.32;;;;;;;20.17;48.30;100072.12;;;;-52
2019/05/27 05:08:55;;;;;;;1.52;1.42;;;;;;;20.16;48.29;100070.14;;;;-60
2019/05/27 05:11:55;;;;;;;1.55;1.45;;;;;;;20.16;48.32;100066.05;;;;-61
2019/05/27 05:14:55;;;;;;;1.50;1.40;;;;;;;20.18;48.30;100068.47;;;;-52
2019/05/27 05:17:55;;;;;;;1.49;1.39;;;;;;;20.17;48.31;100064.07;;;;-52
2019/05/27 05:20:55;;;;;;;1.51;1.41;;;;;;;20.17;48.30;100070.04;;;;-52
2019/05/27 05:23:55;;;;;;;1.59;1.49;;;;;;;20.17;48.26;100073.39;;;;-52
2019/05/27 05:26:54;;;;;;;1.60;1.50;;;;;;;20.17;48.27;100075.73;;;;-53
2019/05/27 05:29:55;;;;;;;1.57;1.47;;;;;;;20.18;48.32;100078.86;;;;-52
2019/05/27 05:32:55;;;;;;;1.50;1.40;;;;;;;20.17;48.28;100074.06;;;;-53
2019/05/27 05:35:55;;;;;;;1.64;1.54;;;;;;;20.18;48.30;100076.01;;;;-52
2019/05/27 05:38:55;;;;;;;1.50;1.40;;;;;;;20.18;48.28;100075.07;;;;-52
2019/05/27 05:41:55;;;;;;;1.50;1.40;;;;;;;20.18;48.35;100074.23;;;;-52
2019/05/27 05:44:55;;;;;;;1.55;1.45;;;;;;;20.18;48.31;100071.22;;;;-52
2019/05/27 05:47:55;;;;;;;1.51;1.41;;;;;;;20.18;48.32;100074.33;;;;-52
2019/05/27 05:50:55;;;;;;;1.48;1.38;;;;;;;20.18;48.32;100076.34;;;;-52
2019/05/27 05:53:55;;;;;;;1.50;1.40;;;;;;;20.18;48.31;100077.75;;;;-52
2019/05/27 05:56:55;;;;;;;1.46;1.36;;;;;;;20.18;48.29;100076.17;;;;-52
2019/05/27 05:59:55;;;;;;;1.50;1.40;;;;;;;20.18;48.28;100073.16;;;;-52
2019/05/27 06:02:55;;;;;;;1.49;1.39;;;;;;;20.18;48.28;100075.51;;;;-52
2019/05/27 06:05:55;;;;;;;1.51;1.41;;;;;;;20.17;48.32;100080.94;;;;-52
2019/05/27 06:08:55;;;;;;;1.47;1.37;;;;;;;20.17;48.33;100077.92;;;;-52
2019/05/27 06:11:55;;;;;;;1.57;1.47;;;;;;;20.17;48.35;100078.83;;;;-52
2019/05/27 06:14:55;;;;;;;1.66;1.47;;;;;;;20.17;48.37;100081.23;;;;-53
2019/05/27 06:17:55;;;;;;;1.59;1.49;;;;;;;20.17;48.30;100083.62;;;;-52
2019/05/27 06:20:55;;;;;;;1.30;1.20;;;;;;;20.16;48.29;100084.25;;;;-53
2019/05/27 06:23:55;;;;;;;1.42;1.32;;;;;;;20.17;48.32;100091.80;;;;-53
2019/05/27 06:26:55;;;;;;;1.59;1.49;;;;;;;20.17;48.31;100091.30;;;;-52
2019/05/27 06:29:55;;;;;;;1.50;1.40;;;;;;;20.17;48.31;100090.05;;;;-53
2019/05/27 06:32:55;;;;;;;4.47;1.45;;;;;;;20.17;48.66;100088.65;;;;-51
2019/05/27 06:35:55;;;;;;;2.52;1.60;;;;;;;20.19;48.79;100096.23;;;;-53
2019/05/27 06:38:55;;;;;;;2.05;1.50;;;;;;;20.20;48.78;100090.73;;;;-51
2019/05/27 06:41:55;;;;;;;1.57;1.40;;;;;;;20.23;49.06;100094.13;;;;-51
2019/05/27 06:44:55;;;;;;;5.73;1.60;;;;;;;20.24;49.10;100092.05;;;;-53
2019/05/27 06:47:55;;;;;;;12.59;1.61;;;;;;;20.25;49.11;100087.79;;;;-52
2019/05/27 06:50:55;;;;;;;3.33;1.60;;;;;;;20.26;49.15;100089.47;;;;-50
2019/05/27 06:53:55;;;;;;;8.05;1.73;;;;;;;20.28;49.25;100086.39;;;;-51
2019/05/27 06:56:55;;;;;;;5.04;1.72;;;;;;;20.30;49.28;100082.70;;;;-51
2019/05/27 06:59:55;;;;;;;4.87;1.61;;;;;;;20.30;49.27;100081.56;;;;-52
2019/05/27 07:02:55;;;;;;;3.89;1.60;;;;;;;20.32;49.19;100081.53;;;;-56
2019/05/27 07:05:55;;;;;;;6.29;1.63;;;;;;;20.34;49.19;100081.34;;;;-52
2019/05/27 07:08:55;;;;;;;4.79;1.65;;;;;;;20.34;49.24;100075.56;;;;-51
2019/05/27 07:11:55;;;;;;;6.09;1.71;;;;;;;20.36;49.28;100077.38;;;;-51
2019/05/27 07:14:55;;;;;;;3.47;1.65;;;;;;;20.38;49.25;100080.47;;;;-51
2019/05/27 07:17:55;;;;;;;4.13;1.71;;;;;;;20.39;49.21;100077.48;;;;-51
2019/05/27 07:20:55;;;;;;;1.73;1.59;;;;;;;20.39;49.24;100076.91;;;;-48
2019/05/27 07:23:55;;;;;;;5.58;1.80;;;;;;;20.41;49.35;100074.80;;;;-50
2019/05/27 07:26:55;;;;;;;6.29;1.77;;;;;;;20.42;49.29;100075.00;;;;-51
2019/05/27 07:29:55;;;;;;;5.26;1.71;;;;;;;20.43;49.27;100077.55;;;;-50
2019/05/27 07:32:55;;;;;;;4.61;1.84;;;;;;;20.43;49.15;100070.67;;;;-51
2019/05/27 07:35:55;;;;;;;3.98;1.77;;;;;;;20.43;49.22;100066.38;;;;-50
2019/05/27 07:38:55;;;;;;;3.93;1.80;;;;;;;20.43;49.21;100063.09;;;;-51
2019/05/27 07:41:55;;;;;;;4.16;1.80;;;;;;;20.44;49.08;100058.03;;;;-51
2019/05/27 07:44:55;;;;;;;5.81;1.89;;;;;;;20.43;49.39;100058.60;;;;-52
2019/05/27 07:47:55;;;;;;;2.27;1.76;;;;;;;20.44;49.16;100059.98;;;;-51
2019/05/27 07:50:56;;;;;;;3.32;1.60;;;;;;;20.45;49.27;100054.04;;;;-51
2019/05/27 07:53:55;;;;;;;4.66;1.70;;;;;;;20.46;49.40;100047.60;;;;-50
2019/05/27 07:56:55;;;;;;;3.95;1.62;;;;;;;20.47;49.33;100058.70;;;;-50
2019/05/27 07:59:54;;;;;;;4.17;1.83;;;;;;;20.47;49.35;100045.62;;;;-50
2019/05/27 08:02:55;;;;;;;2.66;1.67;;;;;;;20.48;49.33;100049.55;;;;-49
2019/05/27 08:05:55;;;;;;;2.01;1.60;;;;;;;20.49;49.35;100053.84;;;;-50
2019/05/27 08:08:55;;;;;;;3.23;1.67;;;;;;;20.50;49.30;100050.45;;;;-49
2019/05/27 08:11:55;;;;;;;3.57;1.75;;;;;;;20.51;49.30;100047.43;;;;-50
2019/05/27 08:14:55;;;;;;;3.93;1.78;;;;;;;20.53;49.26;100037.50;;;;-51
2019/05/27 08:17:55;;;;;;;4.29;1.69;;;;;;;20.53;49.29;100041.23;;;;-50
2019/05/27 08:20:55;;;;;;;2.85;1.67;;;;;;;20.54;49.31;100037.17;;;;-50
2019/05/27 08:23:55;;;;;;;5.62;1.87;;;;;;;20.55;49.27;100043.87;;;;-49
2019/05/27 08:26:55;;;;;;;3.81;1.81;;;;;;;20.55;49.29;100043.03;;;;-51
2019/05/27 08:29:55;;;;;;;2.55;1.67;;;;;;;20.56;49.39;100037.70;;;;-50
2019/05/27 08:32:55;;;;;;;4.75;1.80;;;;;;;20.56;49.42;100034.62;;;;-49
2019/05/27 08:35:55;;;;;;;2.76;1.78;;;;;;;20.57;49.39;100034.38;;;;-51
2019/05/27 08:38:55;;;;;;;3.70;1.83;;;;;;;20.58;49.44;100031.46;;;;-52
2019/05/27 08:41:55;;;;;;;3.69;1.70;;;;;;;20.58;49.37;100035.42;;;;-51
2019/05/27 08:44:55;;;;;;;3.36;1.84;;;;;;;20.58;49.33;100035.59;;;;-51
2019/05/27 08:47:55;;;;;;;2.51;1.72;;;;;;;20.59;49.34;100034.55;;;;-49
2019/05/27 08:50:55;;;;;;;2.57;1.83;;;;;;;20.60;49.33;100023.91;;;;-48
2019/05/27 08:53:55;;;;;;;2.88;1.80;;;;;;;20.60;49.40;100031.13;;;;-50
2019/05/27 08:56:55;;;;;;;2.70;1.70;;;;;;;20.59;49.20;100036.30;;;;-50
2019/05/27 08:59:55;;;;;;;2.21;1.61;;;;;;;20.59;49.26;100035.45;;;;-50
2019/05/27 09:02:55;;;;;;;3.02;1.78;;;;;;;20.58;49.29;100039.72;;;;-50
2019/05/27 09:05:55;;;;;;;4.23;1.66;;;;;;;20.58;49.31;100040.72;;;;-51
2019/05/27 09:08:55;;;;;;;4.09;1.70;;;;;;;20.59;49.22;100038.04;;;;-55
2019/05/27 09:11:55;;;;;;;2.83;1.61;;;;;;;20.59;49.17;100042.00;;;;-52
2019/05/27 09:14:54;;;;;;;3.16;1.70;;;;;;;20.61;49.22;100040.28;;;;-51
2019/05/27 09:17:55;;;;;;;1.75;1.60;;;;;;;20.60;49.34;100037.44;;;;-51
2019/05/27 09:20:55;;;;;;;2.29;1.62;;;;;;;20.60;49.29;100035.76;;;;-54
2019/05/27 09:23:55;;;;;;;4.00;1.57;;;;;;;20.62;49.23;100032.97;;;;-50
2019/05/27 09:26:55;;;;;;;2.49;1.69;;;;;;;20.63;49.22;100029.21;;;;-50
2019/05/27 09:29:55;;;;;;;2.22;1.61;;;;;;;20.63;49.29;100028.03;;;;-50
2019/05/27 09:32:54;;;;;;;3.77;1.73;;;;;;;20.64;49.26;100029.24;;;;-50
2019/05/27 09:35:55;;;;;;;3.62;1.71;;;;;;;20.64;49.29;100025.89;;;;-51
2019/05/27 09:38:55;;;;;;;3.67;1.79;;;;;;;20.64;49.24;100027.13;;;;-54
2019/05/27 09:41:55;;;;;;;2.86;1.72;;;;;;;20.64;49.20;100025.72;;;;-57
2019/05/27 09:44:55;;;;;;;2.75;1.72;;;;;;;20.66;49.18;100026.86;;;;-52
2019/05/27 09:47:55;;;;;;;2.26;1.47;;;;;;;20.66;49.22;100021.33;;;;-52
2019/05/27 09:50:55;;;;;;;2.27;1.61;;;;;;;20.67;49.23;100023.37;;;;-51
2019/05/27 09:53:55;;;;;;;3.15;1.70;;;;;;;20.67;49.27;100016.83;;;;-48
2019/05/27 09:56:55;;;;;;;2.70;1.68;;;;;;;20.67;49.21;100014.64;;;;-48
2019/05/27 09:59:54;;;;;;;4.05;1.71;;;;;;;20.67;49.18;100018.17;;;;-50
2019/05/27 10:02:55;;;;;;;4.55;1.69;;;;;;;20.67;49.11;100011.95;;;;-49
2019/05/27 10:05:55;;;;;;;2.34;1.47;;;;;;;20.65;49.09;100018.61;;;;-50
2019/05/27 10:08:55;;;;;;;2.05;1.56;;;;;;;20.65;49.19;100011.89;;;;-49
2019/05/27 10:11:55;;;;;;;4.49;1.61;;;;;;;20.63;49.15;100006.80;;;;-49
2019/05/27 10:14:55;;;;;;;3.10;1.49;;;;;;;20.62;49.09;100009.05;;;;-49
2019/05/27 10:17:55;;;;;;;1.75;1.51;;;;;;;20.61;49.11;100009.25;;;;-49
2019/05/27 10:20:55;;;;;;;2.41;1.59;;;;;;;20.60;49.14;100011.16;;;;-49
2019/05/27 10:23:55;;;;;;;2.07;1.50;;;;;;;20.60;49.06;100009.05;;;;-50
2019/05/27 10:26:55;;;;;;;3.50;1.57;;;;;;;20.59;49.02;100005.42;;;;-49
2019/05/27 10:29:55;;;;;;;2.09;1.55;;;;;;;20.58;49.03;100002.13;;;;-49
2019/05/27 10:32:54;;;;;;;3.09;1.52;;;;;;;20.57;49.00;100003.27;;;;-51
2019/05/27 10:35:55;;;;;;;1.75;1.49;;;;;;;20.57;48.95;100001.90;;;;-51
2019/05/27 10:38:55;;;;;;;2.20;1.45;;;;;;;20.56;48.98;99999.55;;;;-51
2019/05/27 10:41:55;;;;;;;1.57;1.42;;;;;;;20.55;48.96;99994.29;;;;-51
2019/05/27 10:44:55;;;;;;;2.55;1.50;;;;;;;20.54;48.93;99984.73;;;;-51
2019/05/27 10:47:55;;;;;;;2.55;1.57;;;;;;;20.55;48.93;99983.55;;;;-51
2019/05/27 10:50:55;;;;;;;1.85;1.45;;;;;;;20.54;48.95;99976.41;;;;-52
2019/05/27 10:53:55;;;;;;;2.03;1.58;;;;;;;20.53;48.91;99970.33;;;;-51
2019/05/27 10:56:55;;;;;;;4.41;1.89;;;;;;;20.54;48.95;99970.13;;;;-57
2019/05/27 10:59:55;;;;;;;3.31;1.71;;;;;;;20.55;48.92;99962.34;;;;-57
2019/05/27 11:02:55;;;;;;;3.07;1.43;;;;;;;20.54;49.06;99955.97;;;;-64
2019/05/27 11:05:55;;;;;;;5.48;1.71;;;;;;;20.56;49.14;99950.73;;;;-61
2019/05/27 11:08:55;;;;;;;4.07;1.60;;;;;;;20.56;49.06;99937.62;;;;-51
2019/05/27 11:11:55;;;;;;;3.77;1.77;;;;;;;20.56;49.10;99942.42;;;;-59
2019/05/27 11:14:55;;;;;;;5.00;1.49;;;;;;;20.57;48.95;99943.55;;;;-49
2019/05/27 11:17:55;;;;;;;4.05;1.73;;;;;;;20.59;49.07;99947.78;;;;-56
2019/05/27 11:20:55;;;;;;;2.61;1.70;;;;;;;20.60;49.15;99944.95;;;;-59
2019/05/27 11:23:55;;;;;;;3.59;1.70;;;;;;;20.61;49.20;99948.01;;;;-57
2019/05/27 11:26:54;;;;;;;3.72;1.58;;;;;;;20.61;49.20;99940.49;;;;-59
2019/05/27 11:29:55;;;;;;;2.32;1.61;;;;;;;20.62;49.19;99935.05;;;;-58
2019/05/27 11:32:55;;;;;;;2.51;1.55;;;;;;;20.62;49.24;99934.12;;;;-51
2019/05/27 11:35:55;;;;;;;3.87;1.63;;;;;;;20.64;49.14;99933.67;;;;-53
2019/05/27 11:38:55;;;;;;;3.28;1.54;;;;;;;20.62;49.19;99926.50;;;;-53
2019/05/27 11:41:55;;;;;;;2.23;1.60;;;;;;;20.61;49.16;99917.84;;;;-52
2019/05/27 11:44:55;;;;;;;3.09;1.54;;;;;;;20.61;49.14;99914.98;;;;-53
2019/05/27 11:47:55;;;;;;;1.95;1.56;;;;;;;20.59;49.10;99913.66;;;;-54
2019/05/27 11:50:55;;;;;;;1.62;1.48;;;;;;;20.60;49.10;99910.56;;;;-53
2019/05/27 11:53:55;;;;;;;2.23;1.60;;;;;;;20.59;49.01;99905.84;;;;-58
2019/05/27 11:56:55;;;;;;;1.53;1.43;;;;;;;20.58;49.03;99903.80;;;;-59
2019/05/27 11:59:55;;;;;;;2.57;1.63;;;;;;;20.58;48.96;99904.73;;;;-58
2019/05/27 12:02:55;;;;;;;3.14;1.51;;;;;;;20.57;49.04;99903.09;;;;-59
2019/05/27 12:05:55;;;;;;;2.43;1.46;;;;;;;20.56;48.98;99896.11;;;;-59
2019/05/27 12:08:55;;;;;;;2.23;1.57;;;;;;;20.57;48.91;99903.09;;;;-59
2019/05/27 12:11:55;;;;;;;2.57;1.60;;;;;;;20.56;48.91;99898.39;;;;-58
2019/05/27 12:14:55;;;;;;;1.81;1.48;;;;;;;20.54;48.96;99901.45;;;;-59
2019/05/27 12:17:55;;;;;;;3.65;1.47;;;;;;;20.54;48.94;99899.27;;;;-59
2019/05/27 12:20:55;;;;;;;2.49;1.40;;;;;;;20.54;48.92;99899.41;;;;-60
2019/05/27 12:23:54;;;;;;;1.53;1.33;;;;;;;20.54;48.90;99901.42;;;;-59
2019/05/27 12:26:54;;;;;;;1.68;1.45;;;;;;;20.53;48.84;99892.40;;;;-58
2019/05/27 12:29:54;;;;;;;2.59;1.41;;;;;;;20.52;48.84;99894.01;;;;-59
2019/05/27 12:32:55;;;;;;;2.51;1.49;;;;;;;20.52;48.82;99890.95;;;;-59
2019/05/27 12:35:55;;;;;;;2.80;1.50;;;;;;;20.52;48.79;99889.65;;;;-59
2019/05/27 12:38:55;;;;;;;1.73;1.53;;;;;;;20.51;48.84;99891.30;;;;-59
2019/05/27 12:41:55;;;;;;;2.94;1.50;;;;;;;20.51;48.85;99882.13;;;;-59
2019/05/27 12:44:55;;;;;;;1.85;1.51;;;;;;;20.51;48.82;99875.77;;;;-59
2019/05/27 12:47:54;;;;;;;1.87;1.35;;;;;;;20.51;48.81;99878.61;;;;-58
2019/05/27 12:50:54;;;;;;;2.20;1.48;;;;;;;20.50;48.81;99878.92;;;;-59
2019/05/27 12:53:55;;;;;;;1.80;1.41;;;;;;;20.50;48.80;99883.11;;;;-59
2019/05/27 12:56:55;;;;;;;1.85;1.41;;;;;;;20.49;48.79;99876.30;;;;-59
2019/05/27 12:59:55;;;;;;;1.40;1.30;;;;;;;20.49;48.80;99875.97;;;;-59
2019/05/27 13:02:55;;;;;;;1.53;1.41;;;;;;;20.48;48.79;99876.91;;;;-59
2019/05/27 13:05:55;;;;;;;1.75;1.49;;;;;;;20.48;48.78;99878.11;;;;-59
2019/05/27 13:08:55;;;;;;;1.93;1.41;;;;;;;20.48;48.78;99881.13;;;;-59
2019/05/27 13:11:55;;;;;;;1.87;1.37;;;;;;;20.48;48.80;99876.58;;;;-60
2019/05/27 13:14:55;;;;;;;1.55;1.40;;;;;;;20.47;48.77;99868.93;;;;-59
2019/05/27 13:17:55;;;;;;;2.17;1.39;;;;;;;20.47;48.81;99870.17;;;;-59
2019/05/27 13:20:55;;;;;;;1.45;1.35;;;;;;;20.47;48.78;99864.13;;;;-59
2019/05/27 13:23:55;;;;;;;1.77;1.49;;;;;;;20.46;48.81;99857.09;;;;-59
2019/05/27 13:26:54;;;;;;;1.49;1.39;;;;;;;20.47;48.78;99859.03;;;;-59
2019/05/27 13:29:55;;;;;;;1.51;1.41;;;;;;;20.45;48.80;99849.17;;;;-59
2019/05/27 13:32:55;;;;;;;1.92;1.42;;;;;;;20.46;48.78;99843.91;;;;-59
2019/05/27 13:35:55;;;;;;;1.60;1.50;;;;;;;20.46;48.76;99842.39;;;;-59
2019/05/27 13:38:55;;;;;;;2.04;1.43;;;;;;;20.45;48.79;99841.26;;;;-59
2019/05/27 13:41:55;;;;;;;1.50;1.40;;;;;;;20.45;48.78;99837.77;;;;-59
2019/05/27 13:44:55;;;;;;;2.24;1.44;;;;;;;20.45;48.77;99839.34;;;;-59
2019/05/27 13:47:55;;;;;;;1.77;1.43;;;;;;;20.44;48.76;99836.56;;;;-59
2019/05/27 13:50:54;;;;;;;1.38;1.28;;;;;;;20.45;48.76;99844.81;;;;-59
2019/05/27 13:53:54;;;;;;;1.54;1.44;;;;;;;20.45;48.74;99832.30;;;;-59
2019/05/27 13:56:55;;;;;;;2.77;1.44;;;;;;;20.45;48.77;99836.42;;;;-59
2019/05/27 13:59:55;;;;;;;2.06;1.39;;;;;;;20.44;48.78;99834.39;;;;-59
2019/05/27 14:02:55;;;;;;;2.41;1.46;;;;;;;20.45;48.76;99833.98;;;;-59
2019/05/27 14:05:55;;;;;;;1.56;1.40;;;;;;;20.44;48.74;99828.52;;;;-59
2019/05/27 14:08:55;;;;;;;1.40;1.30;;;;;;;20.44;48.76;99829.66;;;;-59
2019/05/27 14:11:54;;;;;;;2.17;1.39;;;;;;;20.44;48.75;99830.93;;;;-58
2019/05/27 14:14:55;;;;;;;1.79;1.33;;;;;;;20.44;48.73;99825.90;;;;-59
2019/05/27 14:17:54;;;;;;;1.44;1.32;;;;;;;20.44;48.74;99819.93;;;;-59
2019/05/27 14:20:55;;;;;;;2.27;1.38;;;;;;;20.43;48.68;99821.44;;;;-59
2019/05/27 14:23:55;;;;;;;1.40;1.30;;;;;;;20.44;48.73;99811.20;;;;-59
2019/05/27 14:26:55;;;;;;;2.03;1.45;;;;;;;20.43;48.72;99813.02;;;;-59
2019/05/27 14:29:55;;;;;;;1.80;1.30;;;;;;;20.43;48.69;99813.52;;;;-59
2019/05/27 14:32:54;;;;;;;3.70;1.49;;;;;;;20.42;48.88;99801.19;;;;-54
2019/05/27 14:35:55;;;;;;;2.13;1.51;;;;;;;20.45;49.01;99801.67;;;;-53
2019/05/27 14:38:55;;;;;;;1.71;1.35;;;;;;;20.48;49.02;99801.33;;;;-54
2019/05/27 14:41:55;;;;;;;1.65;1.35;;;;;;;20.47;48.92;99792.84;;;;-53
2019/05/27 14:44:56;;;;;;;2.51;1.30;;;;;;;20.48;48.96;99790.89;;;;-56
2019/05/27 14:47:54;;;;;;;2.21;1.31;;;;;;;20.50;49.09;99792.27;;;;-51
2019/05/27 14:50:55;;;;;;;1.33;1.23;;;;;;;20.51;49.08;99792.12;;;;-59
2019/05/27 14:53:54;;;;;;;1.31;1.21;;;;;;;20.52;49.15;99793.67;;;;-54
2019/05/27 14:56:55;;;;;;;3.25;1.39;;;;;;;20.52;49.14;99791.66;;;;-53
2019/05/27 14:59:55;;;;;;;1.47;1.31;;;;;;;20.53;49.18;99787.25;;;;-52
2019/05/27 15:02:55;;;;;;;2.61;1.47;;;;;;;20.55;49.18;99786.11;;;;-52
2019/05/27 15:05:55;;;;;;;1.31;1.21;;;;;;;20.55;49.18;99781.11;;;;-54
2019/05/27 15:08:55;;;;;;;1.73;1.30;;;;;;;20.55;49.23;99781.17;;;;-61
2019/05/27 15:11:55;;;;;;;1.40;1.30;;;;;;;20.56;49.22;99777.51;;;;-57
2019/05/27 15:14:54;;;;;;;1.30;1.20;;;;;;;20.57;49.25;99777.64;;;;-54
2019/05/27 15:17:55;;;;;;;1.77;1.44;;;;;;;20.58;49.32;99777.81;;;;-54
2019/05/27 15:20:54;;;;;;;1.39;1.29;;;;;;;20.59;49.15;99778.67;;;;-54
2019/05/27 15:23:55;;;;;;;2.28;1.37;;;;;;;20.58;49.33;99781.50;;;;-52
2019/05/27 15:26:55;;;;;;;2.43;1.44;;;;;;;20.60;49.27;99786.69;;;;-53
2019/05/27 15:29:55;;;;;;;1.93;1.39;;;;;;;20.59;49.17;99781.39;;;;-53
2019/05/27 15:32:55;;;;;;;2.48;1.37;;;;;;;20.59;49.13;99779.21;;;;-59
2019/05/27 15:35:55;;;;;;;1.83;1.34;;;;;;;20.58;49.19;99778.24;;;;-59
2019/05/27 15:38:55;;;;;;;2.01;1.24;;;;;;;20.58;49.53;99778.84;;;;-54
2019/05/27 15:41:55;;;;;;;3.71;1.31;;;;;;;20.59;49.32;99781.39;;;;-53
2019/05/27 15:44:55;;;;;;;4.33;1.51;;;;;;;20.60;49.58;99777.30;;;;-52
2019/05/27 15:47:55;;;;;;;5.95;1.57;;;;;;;20.61;49.45;99779.09;;;;-52
2019/05/27 15:50:55;;;;;;;2.31;1.40;;;;;;;20.60;49.58;99779.81;;;;-50
2019/05/27 15:53:55;;;;;;;3.59;1.62;;;;;;;20.61;49.39;99782.02;;;;-52
2019/05/27 15:56:54;;;;;;;3.25;1.57;;;;;;;20.62;49.41;99781.48;;;;-52
2019/05/27 15:59:54;;;;;;;2.93;1.33;;;;;;;20.63;49.46;99776.61;;;;-53
2019/05/27 16:02:55;;;;;;;4.23;1.63;;;;;;;20.62;49.55;99776.92;;;;-55
2019/05/27 16:05:55;;;;;;;4.66;1.82;;;;;;;20.64;49.45;99780.59;;;;-65
2019/05/27 16:08:55;;;;;;;2.38;1.50;;;;;;;20.64;49.47;99774.89;;;;-62
2019/05/27 16:11:55;;;;;;;4.99;1.71;;;;;;;20.65;49.48;99777.17;;;;-52
2019/05/27 16:14:55;;;;;;;4.71;1.55;;;;;;;20.66;49.51;99780.72;;;;-60
2019/05/27 16:17:55;;;;;;;4.27;1.51;;;;;;;20.66;49.45;99781.06;;;;-51
2019/05/27 16:20:55;;;;;;;8.62;1.72;;;;;;;20.67;49.56;99775.55;;;;-58
2019/05/27 16:23:54;;;;;;;4.59;1.66;;;;;;;20.67;49.46;99773.20;;;;-61
2019/05/27 16:26:54;;;;;;;3.63;1.61;;;;;;;20.67;49.58;99768.27;;;;-52
2019/05/27 16:29:55;;;;;;;6.80;1.67;;;;;;;20.67;49.51;99759.88;;;;-52
2019/05/27 16:32:55;;;;;;;4.56;1.67;;;;;;;20.68;49.54;99762.09;;;;-55
2019/05/27 16:35:55;;;;;;;6.62;1.56;;;;;;;20.68;49.55;99762.09;;;;-56
2019/05/27 16:38:55;;;;;;;2.47;1.58;;;;;;;20.69;49.44;99755.47;;;;-61
2019/05/27 16:41:54;;;;;;;4.05;1.49;;;;;;;20.68;49.50;99743.13;;;;-63
2019/05/27 16:44:54;;;;;;;3.29;1.33;;;;;;;20.69;49.48;99735.00;;;;-53
2019/05/27 16:47:54;;;;;;;2.71;1.53;;;;;;;20.69;49.48;99739.47;;;;-54